sensor_id;sensor_type;location;lat;lon;timestamp;P1;durP1;ratioP1;P2;durP2;ratioP2
31798;SDS011;18374;51.136;3.502;2022-08-19T00:02:15;31.60;;;20.80;;
31798;SDS011;18374;51.136;3.502;2022-08-19T00:04:43;26.88;;;18.30;;
31798;SDS011;18374;51.136;3.502;2022-08-19T00:07:13;29.52;;;19.60;;
31798;SDS011;18374;51.136;3.502;2022-08-19T00:09:41;30.60;;;19.35;;
31798;SDS011;18374;51.136;3.502;2022-08-19T00:12:09;28.67;;;18.25;;
31798;SDS011;18374;51.136;3.502;2022-08-19T00:14:37;30.60;;;19.63;;
31798;SDS011;18374;51.136;3.502;2022-08-19T00:17:06;28.25;;;19.20;;
31798;SDS011;18374;51.136;3.502;2022-08-19T00:19:35;28.90;;;18.13;;
31798;SDS011;18374;51.136;3.502;2022-08-19T00:22:04;34.08;;;19.98;;
31798;SDS011;18374;51.136;3.502;2022-08-19T00:24:32;31.33;;;19.55;;
31798;SDS011;18374;51.136;3.502;2022-08-19T00:27:01;28.00;;;18.02;;
31798;SDS011;18374;51.136;3.502;2022-08-19T00:29:49;27.77;;;17.65;;
31798;SDS011;18374;51.136;3.502;2022-08-19T00:32:18;27.45;;;18.38;;
31798;SDS011;18374;51.136;3.502;2022-08-19T00:34:47;26.95;;;16.65;;
31798;SDS011;18374;51.136;3.502;2022-08-19T00:37:14;28.83;;;17.83;;
31798;SDS011;18374;51.136;3.502;2022-08-19T00:39:42;29.45;;;18.40;;
31798;SDS011;18374;51.136;3.502;2022-08-19T00:42:10;24.52;;;17.05;;
31798;SDS011;18374;51.136;3.502;2022-08-19T00:44:41;28.88;;;17.63;;
31798;SDS011;18374;51.136;3.502;2022-08-19T00:47:10;27.58;;;16.60;;
31798;SDS011;18374;51.136;3.502;2022-08-19T00:49:43;22.58;;;15.35;;
31798;SDS011;18374;51.136;3.502;2022-08-19T00:52:20;29.15;;;17.98;;
31798;SDS011;18374;51.136;3.502;2022-08-19T00:54:56;22.17;;;15.30;;
31798;SDS011;18374;51.136;3.502;2022-08-19T00:57:30;26.27;;;17.17;;
31798;SDS011;18374;51.136;3.502;2022-08-19T01:00:08;32.15;;;18.27;;
31798;SDS011;18374;51.136;3.502;2022-08-19T01:02:40;31.00;;;18.35;;
31798;SDS011;18374;51.136;3.502;2022-08-19T01:05:14;28.58;;;16.80;;
31798;SDS011;18374;51.136;3.502;2022-08-19T01:07:47;35.80;;;17.92;;
31798;SDS011;18374;51.136;3.502;2022-08-19T01:10:19;28.52;;;17.38;;
31798;SDS011;18374;51.136;3.502;2022-08-19T01:12:52;29.10;;;16.40;;
31798;SDS011;18374;51.136;3.502;2022-08-19T01:15:29;24.63;;;16.23;;
31798;SDS011;18374;51.136;3.502;2022-08-19T01:18:02;24.30;;;15.07;;
31798;SDS011;18374;51.136;3.502;2022-08-19T01:20:35;26.08;;;15.65;;
31798;SDS011;18374;51.136;3.502;2022-08-19T01:23:03;25.73;;;16.27;;
31798;SDS011;18374;51.136;3.502;2022-08-19T01:25:52;26.75;;;15.65;;
31798;SDS011;18374;51.136;3.502;2022-08-19T01:28:25;30.77;;;15.07;;
31798;SDS011;18374;51.136;3.502;2022-08-19T01:31:07;24.75;;;16.45;;
31798;SDS011;18374;51.136;3.502;2022-08-19T01:33:54;27.90;;;16.27;;
31798;SDS011;18374;51.136;3.502;2022-08-19T01:39:05;30.65;;;17.33;;
31798;SDS011;18374;51.136;3.502;2022-08-19T01:41:41;34.50;;;18.20;;
31798;SDS011;18374;51.136;3.502;2022-08-19T01:44:09;32.67;;;18.80;;
31798;SDS011;18374;51.136;3.502;2022-08-19T01:46:45;32.55;;;20.05;;
31798;SDS011;18374;51.136;3.502;2022-08-19T01:49:17;34.50;;;19.00;;
31798;SDS011;18374;51.136;3.502;2022-08-19T01:51:48;30.05;;;18.08;;
31798;SDS011;18374;51.136;3.502;2022-08-19T01:54:17;38.25;;;19.08;;
31798;SDS011;18374;51.136;3.502;2022-08-19T01:56:55;32.70;;;19.83;;
31798;SDS011;18374;51.136;3.502;2022-08-19T01:59:31;31.38;;;18.35;;
31798;SDS011;18374;51.136;3.502;2022-08-19T02:02:00;34.65;;;19.08;;
31798;SDS011;18374;51.136;3.502;2022-08-19T02:04:28;33.00;;;19.35;;
31798;SDS011;18374;51.136;3.502;2022-08-19T02:06:57;30.95;;;18.58;;
31798;SDS011;18374;51.136;3.502;2022-08-19T02:09:25;31.67;;;18.67;;
31798;SDS011;18374;51.136;3.502;2022-08-19T02:11:52;35.30;;;19.45;;
31798;SDS011;18374;51.136;3.502;2022-08-19T02:14:20;31.38;;;19.27;;
31798;SDS011;18374;51.136;3.502;2022-08-19T02:16:48;34.80;;;18.98;;
31798;SDS011;18374;51.136;3.502;2022-08-19T02:19:15;35.42;;;20.15;;
31798;SDS011;18374;51.136;3.502;2022-08-19T02:21:43;29.85;;;19.00;;
31798;SDS011;18374;51.136;3.502;2022-08-19T02:24:11;30.02;;;17.98;;
31798;SDS011;18374;51.136;3.502;2022-08-19T02:26:39;32.55;;;19.15;;
31798;SDS011;18374;51.136;3.502;2022-08-19T02:29:07;35.67;;;20.95;;
31798;SDS011;18374;51.136;3.502;2022-08-19T02:31:35;33.20;;;19.85;;
31798;SDS011;18374;51.136;3.502;2022-08-19T02:34:03;32.08;;;20.27;;
31798;SDS011;18374;51.136;3.502;2022-08-19T02:36:30;34.78;;;19.33;;
31798;SDS011;18374;51.136;3.502;2022-08-19T02:38:58;32.63;;;20.15;;
31798;SDS011;18374;51.136;3.502;2022-08-19T02:41:31;37.28;;;19.38;;
31798;SDS011;18374;51.136;3.502;2022-08-19T02:44:00;33.70;;;19.92;;
31798;SDS011;18374;51.136;3.502;2022-08-19T02:46:51;34.85;;;19.65;;
31798;SDS011;18374;51.136;3.502;2022-08-19T02:49:18;33.30;;;19.67;;
31798;SDS011;18374;51.136;3.502;2022-08-19T02:51:46;40.10;;;20.05;;
31798;SDS011;18374;51.136;3.502;2022-08-19T02:54:14;42.58;;;20.55;;
31798;SDS011;18374;51.136;3.502;2022-08-19T02:56:43;31.80;;;19.58;;
31798;SDS011;18374;51.136;3.502;2022-08-19T02:59:11;34.92;;;19.70;;
31798;SDS011;18374;51.136;3.502;2022-08-19T03:01:40;38.08;;;20.13;;
31798;SDS011;18374;51.136;3.502;2022-08-19T03:04:10;32.65;;;18.95;;
31798;SDS011;18374;51.136;3.502;2022-08-19T03:06:43;35.10;;;19.67;;
31798;SDS011;18374;51.136;3.502;2022-08-19T03:09:13;33.10;;;18.50;;
31798;SDS011;18374;51.136;3.502;2022-08-19T03:11:43;34.90;;;19.85;;
31798;SDS011;18374;51.136;3.502;2022-08-19T03:14:11;31.85;;;19.48;;
31798;SDS011;18374;51.136;3.502;2022-08-19T03:16:41;28.90;;;18.73;;
31798;SDS011;18374;51.136;3.502;2022-08-19T03:19:18;30.17;;;18.15;;
31798;SDS011;18374;51.136;3.502;2022-08-19T03:21:48;32.92;;;18.52;;
31798;SDS011;18374;51.136;3.502;2022-08-19T03:24:17;28.42;;;16.95;;
31798;SDS011;18374;51.136;3.502;2022-08-19T03:26:48;29.63;;;16.90;;
31798;SDS011;18374;51.136;3.502;2022-08-19T03:29:28;26.23;;;16.48;;
31798;SDS011;18374;51.136;3.502;2022-08-19T03:31:59;28.83;;;16.85;;
31798;SDS011;18374;51.136;3.502;2022-08-19T03:34:53;29.10;;;17.45;;
31798;SDS011;18374;51.136;3.502;2022-08-19T03:37:21;23.42;;;15.15;;
31798;SDS011;18374;51.136;3.502;2022-08-19T03:39:49;34.10;;;16.63;;
31798;SDS011;18374;51.136;3.502;2022-08-19T03:42:17;31.33;;;16.42;;
31798;SDS011;18374;51.136;3.502;2022-08-19T03:45:05;32.17;;;16.52;;
31798;SDS011;18374;51.136;3.502;2022-08-19T03:47:34;29.02;;;16.77;;
31798;SDS011;18374;51.136;3.502;2022-08-19T03:50:02;26.90;;;15.73;;
31798;SDS011;18374;51.136;3.502;2022-08-19T03:52:31;25.08;;;14.73;;
31798;SDS011;18374;51.136;3.502;2022-08-19T03:54:58;28.02;;;16.27;;
31798;SDS011;18374;51.136;3.502;2022-08-19T03:57:26;26.40;;;15.27;;
31798;SDS011;18374;51.136;3.502;2022-08-19T03:59:58;26.33;;;14.02;;
31798;SDS011;18374;51.136;3.502;2022-08-19T04:02:40;23.83;;;14.40;;
31798;SDS011;18374;51.136;3.502;2022-08-19T04:05:27;27.50;;;14.70;;
31798;SDS011;18374;51.136;3.502;2022-08-19T04:07:56;26.92;;;15.10;;
31798;SDS011;18374;51.136;3.502;2022-08-19T04:10:26;24.00;;;14.90;;
31798;SDS011;18374;51.136;3.502;2022-08-19T04:12:55;28.73;;;15.13;;
31798;SDS011;18374;51.136;3.502;2022-08-19T04:15:22;26.33;;;14.38;;
31798;SDS011;18374;51.136;3.502;2022-08-19T04:17:50;25.92;;;14.35;;
31798;SDS011;18374;51.136;3.502;2022-08-19T04:20:18;31.55;;;15.13;;
31798;SDS011;18374;51.136;3.502;2022-08-19T04:22:45;27.00;;;14.57;;
31798;SDS011;18374;51.136;3.502;2022-08-19T04:25:13;26.08;;;14.23;;
31798;SDS011;18374;51.136;3.502;2022-08-19T04:27:41;22.35;;;13.40;;
31798;SDS011;18374;51.136;3.502;2022-08-19T04:30:13;24.77;;;14.95;;
31798;SDS011;18374;51.136;3.502;2022-08-19T04:32:41;24.40;;;13.70;;
31798;SDS011;18374;51.136;3.502;2022-08-19T04:35:10;22.08;;;13.85;;
31798;SDS011;18374;51.136;3.502;2022-08-19T04:37:44;22.63;;;14.32;;
31798;SDS011;18374;51.136;3.502;2022-08-19T04:40:12;25.63;;;14.50;;
31798;SDS011;18374;51.136;3.502;2022-08-19T04:42:58;22.42;;;13.27;;
31798;SDS011;18374;51.136;3.502;2022-08-19T04:45:27;29.95;;;14.73;;
31798;SDS011;18374;51.136;3.502;2022-08-19T04:48:04;23.63;;;14.88;;
31798;SDS011;18374;51.136;3.502;2022-08-19T04:50:53;29.17;;;14.30;;
31798;SDS011;18374;51.136;3.502;2022-08-19T04:53:26;27.33;;;14.30;;
31798;SDS011;18374;51.136;3.502;2022-08-19T04:56:06;28.02;;;15.80;;
31798;SDS011;18374;51.136;3.502;2022-08-19T04:58:40;27.10;;;14.23;;
31798;SDS011;18374;51.136;3.502;2022-08-19T05:01:14;25.55;;;14.18;;
31798;SDS011;18374;51.136;3.502;2022-08-19T05:03:50;30.52;;;14.80;;
31798;SDS011;18374;51.136;3.502;2022-08-19T05:06:20;25.27;;;15.18;;
31798;SDS011;18374;51.136;3.502;2022-08-19T05:08:49;26.98;;;14.23;;
31798;SDS011;18374;51.136;3.502;2022-08-19T05:11:21;27.73;;;15.65;;
31798;SDS011;18374;51.136;3.502;2022-08-19T05:13:52;28.15;;;15.10;;
31798;SDS011;18374;51.136;3.502;2022-08-19T05:16:21;22.95;;;14.13;;
31798;SDS011;18374;51.136;3.502;2022-08-19T05:18:51;28.00;;;15.68;;
31798;SDS011;18374;51.136;3.502;2022-08-19T05:21:38;23.92;;;14.65;;
31798;SDS011;18374;51.136;3.502;2022-08-19T05:24:26;22.65;;;14.88;;
31798;SDS011;18374;51.136;3.502;2022-08-19T05:26:57;26.55;;;13.85;;
31798;SDS011;18374;51.136;3.502;2022-08-19T05:29:26;23.45;;;14.43;;
31798;SDS011;18374;51.136;3.502;2022-08-19T05:32:03;28.33;;;14.63;;
31798;SDS011;18374;51.136;3.502;2022-08-19T05:34:35;22.30;;;13.80;;
31798;SDS011;18374;51.136;3.502;2022-08-19T05:37:05;30.13;;;14.15;;
31798;SDS011;18374;51.136;3.502;2022-08-19T05:39:35;27.92;;;14.70;;
31798;SDS011;18374;51.136;3.502;2022-08-19T05:42:05;34.25;;;14.55;;
31798;SDS011;18374;51.136;3.502;2022-08-19T05:44:37;27.25;;;15.38;;
31798;SDS011;18374;51.136;3.502;2022-08-19T05:47:11;28.33;;;14.05;;
31798;SDS011;18374;51.136;3.502;2022-08-19T05:49:42;26.95;;;13.45;;
31798;SDS011;18374;51.136;3.502;2022-08-19T05:52:11;22.20;;;14.32;;
31798;SDS011;18374;51.136;3.502;2022-08-19T05:54:45;25.10;;;13.77;;
31798;SDS011;18374;51.136;3.502;2022-08-19T05:57:17;26.45;;;14.48;;
31798;SDS011;18374;51.136;3.502;2022-08-19T05:59:46;27.50;;;13.30;;
31798;SDS011;18374;51.136;3.502;2022-08-19T06:02:24;32.00;;;14.13;;
31798;SDS011;18374;51.136;3.502;2022-08-19T06:04:53;26.55;;;14.20;;
31798;SDS011;18374;51.136;3.502;2022-08-19T06:07:21;24.13;;;13.52;;
31798;SDS011;18374;51.136;3.502;2022-08-19T06:09:49;22.10;;;12.65;;
31798;SDS011;18374;51.136;3.502;2022-08-19T06:12:27;27.10;;;13.63;;
31798;SDS011;18374;51.136;3.502;2022-08-19T06:14:58;24.27;;;14.18;;
31798;SDS011;18374;51.136;3.502;2022-08-19T06:17:40;22.88;;;13.93;;
31798;SDS011;18374;51.136;3.502;2022-08-19T06:20:12;22.90;;;13.50;;
31798;SDS011;18374;51.136;3.502;2022-08-19T06:22:42;25.45;;;14.07;;
31798;SDS011;18374;51.136;3.502;2022-08-19T06:25:13;22.38;;;12.57;;
31798;SDS011;18374;51.136;3.502;2022-08-19T06:27:42;21.60;;;13.38;;
31798;SDS011;18374;51.136;3.502;2022-08-19T06:30:31;20.90;;;14.02;;
31798;SDS011;18374;51.136;3.502;2022-08-19T06:32:59;25.83;;;12.65;;
31798;SDS011;18374;51.136;3.502;2022-08-19T06:35:27;23.63;;;13.48;;
31798;SDS011;18374;51.136;3.502;2022-08-19T06:37:56;17.92;;;10.73;;
31798;SDS011;18374;51.136;3.502;2022-08-19T06:40:24;26.30;;;11.38;;
31798;SDS011;18374;51.136;3.502;2022-08-19T06:42:54;20.85;;;11.60;;
31798;SDS011;18374;51.136;3.502;2022-08-19T06:45:23;22.95;;;11.65;;
31798;SDS011;18374;51.136;3.502;2022-08-19T06:48:02;25.05;;;12.45;;
31798;SDS011;18374;51.136;3.502;2022-08-19T06:50:30;19.75;;;10.05;;
31798;SDS011;18374;51.136;3.502;2022-08-19T06:52:57;18.45;;;11.02;;
31798;SDS011;18374;51.136;3.502;2022-08-19T06:55:30;23.40;;;11.70;;
31798;SDS011;18374;51.136;3.502;2022-08-19T06:58:01;17.90;;;10.90;;
31798;SDS011;18374;51.136;3.502;2022-08-19T07:00:30;20.50;;;11.57;;
31798;SDS011;18374;51.136;3.502;2022-08-19T07:02:59;20.55;;;11.52;;
31798;SDS011;18374;51.136;3.502;2022-08-19T07:05:38;22.65;;;11.25;;
31798;SDS011;18374;51.136;3.502;2022-08-19T07:08:12;23.10;;;10.95;;
31798;SDS011;18374;51.136;3.502;2022-08-19T07:10:44;21.85;;;11.82;;
31798;SDS011;18374;51.136;3.502;2022-08-19T07:13:13;33.78;;;11.50;;
31798;SDS011;18374;51.136;3.502;2022-08-19T07:15:41;18.90;;;10.68;;
31798;SDS011;18374;51.136;3.502;2022-08-19T07:18:09;24.20;;;11.60;;
31798;SDS011;18374;51.136;3.502;2022-08-19T07:20:38;20.25;;;10.82;;
31798;SDS011;18374;51.136;3.502;2022-08-19T07:23:08;22.23;;;10.57;;
31798;SDS011;18374;51.136;3.502;2022-08-19T07:25:44;26.05;;;12.15;;
31798;SDS011;18374;51.136;3.502;2022-08-19T07:28:19;20.40;;;11.50;;
31798;SDS011;18374;51.136;3.502;2022-08-19T07:30:51;23.48;;;10.68;;
31798;SDS011;18374;51.136;3.502;2022-08-19T07:33:19;20.73;;;9.65;;
31798;SDS011;18374;51.136;3.502;2022-08-19T07:35:47;19.48;;;10.32;;
31798;SDS011;18374;51.136;3.502;2022-08-19T07:38:16;18.02;;;10.13;;
31798;SDS011;18374;51.136;3.502;2022-08-19T07:40:44;24.88;;;10.65;;
31798;SDS011;18374;51.136;3.502;2022-08-19T07:43:13;22.13;;;10.73;;
31798;SDS011;18374;51.136;3.502;2022-08-19T07:45:44;18.83;;;8.52;;
31798;SDS011;18374;51.136;3.502;2022-08-19T07:48:13;18.15;;;10.55;;
31798;SDS011;18374;51.136;3.502;2022-08-19T07:50:41;18.35;;;9.85;;
31798;SDS011;18374;51.136;3.502;2022-08-19T07:53:09;17.70;;;9.20;;
31798;SDS011;18374;51.136;3.502;2022-08-19T07:55:38;13.70;;;8.23;;
31798;SDS011;18374;51.136;3.502;2022-08-19T07:58:11;19.27;;;9.18;;
31798;SDS011;18374;51.136;3.502;2022-08-19T08:00:42;13.40;;;7.75;;
31798;SDS011;18374;51.136;3.502;2022-08-19T08:03:11;16.77;;;7.85;;
31798;SDS011;18374;51.136;3.502;2022-08-19T08:05:41;18.77;;;6.53;;
31798;SDS011;18374;51.136;3.502;2022-08-19T08:08:27;14.30;;;7.45;;
31798;SDS011;18374;51.136;3.502;2022-08-19T08:11:19;11.75;;;6.32;;
31798;SDS011;18374;51.136;3.502;2022-08-19T08:13:49;13.35;;;6.72;;
31798;SDS011;18374;51.136;3.502;2022-08-19T08:16:27;17.80;;;6.95;;
31798;SDS011;18374;51.136;3.502;2022-08-19T08:18:58;16.80;;;7.15;;
31798;SDS011;18374;51.136;3.502;2022-08-19T08:21:27;15.40;;;7.90;;
31798;SDS011;18374;51.136;3.502;2022-08-19T08:23:54;9.77;;;6.10;;
31798;SDS011;18374;51.136;3.502;2022-08-19T08:26:23;13.98;;;7.82;;
31798;SDS011;18374;51.136;3.502;2022-08-19T08:28:52;13.05;;;6.88;;
31798;SDS011;18374;51.136;3.502;2022-08-19T08:31:20;15.23;;;7.25;;
31798;SDS011;18374;51.136;3.502;2022-08-19T08:33:49;14.77;;;8.48;;
31798;SDS011;18374;51.136;3.502;2022-08-19T08:36:16;16.27;;;7.75;;
31798;SDS011;18374;51.136;3.502;2022-08-19T08:38:44;20.35;;;9.00;;
31798;SDS011;18374;51.136;3.502;2022-08-19T08:44:02;15.75;;;7.75;;
31798;SDS011;18374;51.136;3.502;2022-08-19T08:46:44;17.10;;;7.90;;
31798;SDS011;18374;51.136;3.502;2022-08-19T08:49:22;11.48;;;7.30;;
31798;SDS011;18374;51.136;3.502;2022-08-19T08:52:34;14.75;;;7.20;;
31798;SDS011;18374;51.136;3.502;2022-08-19T08:55:18;13.63;;;6.93;;
31798;SDS011;18374;51.136;3.502;2022-08-19T09:00:37;13.35;;;7.20;;
31798;SDS011;18374;51.136;3.502;2022-08-19T09:03:42;15.30;;;9.68;;
31798;SDS011;18374;51.136;3.502;2022-08-19T09:11:43;16.73;;;10.13;;
31798;SDS011;18374;51.136;3.502;2022-08-19T09:17:18;12.35;;;8.52;;
31798;SDS011;18374;51.136;3.502;2022-08-19T09:19:53;14.98;;;8.88;;
31798;SDS011;18374;51.136;3.502;2022-08-19T09:22:27;18.55;;;9.13;;
31798;SDS011;18374;51.136;3.502;2022-08-19T09:24:55;15.35;;;10.68;;
31798;SDS011;18374;51.136;3.502;2022-08-19T09:27:23;19.20;;;12.00;;
31798;SDS011;18374;51.136;3.502;2022-08-19T09:32:44;18.10;;;11.25;;
31798;SDS011;18374;51.136;3.502;2022-08-19T09:35:12;16.55;;;10.82;;
31798;SDS011;18374;51.136;3.502;2022-08-19T09:37:42;21.13;;;12.35;;
31798;SDS011;18374;51.136;3.502;2022-08-19T09:40:11;14.70;;;9.70;;
31798;SDS011;18374;51.136;3.502;2022-08-19T09:42:41;10.40;;;7.47;;
31798;SDS011;18374;51.136;3.502;2022-08-19T09:45:19;11.07;;;7.55;;
31798;SDS011;18374;51.136;3.502;2022-08-19T09:47:49;11.73;;;7.18;;
31798;SDS011;18374;51.136;3.502;2022-08-19T09:50:21;20.73;;;8.85;;
31798;SDS011;18374;51.136;3.502;2022-08-19T09:52:50;9.50;;;7.63;;
31798;SDS011;18374;51.136;3.502;2022-08-19T09:55:23;10.88;;;7.35;;
31798;SDS011;18374;51.136;3.502;2022-08-19T09:57:59;11.18;;;6.88;;
31798;SDS011;18374;51.136;3.502;2022-08-19T10:00:28;10.88;;;7.25;;
31798;SDS011;18374;51.136;3.502;2022-08-19T10:03:05;13.80;;;7.22;;
31798;SDS011;18374;51.136;3.502;2022-08-19T10:05:33;12.18;;;7.57;;
31798;SDS011;18374;51.136;3.502;2022-08-19T10:08:16;10.15;;;6.03;;
31798;SDS011;18374;51.136;3.502;2022-08-19T10:10:53;6.03;;;4.43;;
31798;SDS011;18374;51.136;3.502;2022-08-19T10:13:26;7.00;;;3.78;;
31798;SDS011;18374;51.136;3.502;2022-08-19T10:16:01;6.47;;;3.30;;
31798;SDS011;18374;51.136;3.502;2022-08-19T10:18:33;5.43;;;3.28;;
31798;SDS011;18374;51.136;3.502;2022-08-19T10:21:04;3.65;;;2.85;;
31798;SDS011;18374;51.136;3.502;2022-08-19T10:23:38;4.97;;;2.90;;
31798;SDS011;18374;51.136;3.502;2022-08-19T10:26:11;6.32;;;3.70;;
31798;SDS011;18374;51.136;3.502;2022-08-19T10:28:42;3.75;;;2.90;;
31798;SDS011;18374;51.136;3.502;2022-08-19T10:31:14;2.97;;;1.67;;
31798;SDS011;18374;51.136;3.502;2022-08-19T10:34:06;3.60;;;1.85;;
31798;SDS011;18374;51.136;3.502;2022-08-19T10:36:38;3.47;;;2.10;;
31798;SDS011;18374;51.136;3.502;2022-08-19T10:39:22;3.22;;;1.83;;
31798;SDS011;18374;51.136;3.502;2022-08-19T10:41:56;3.05;;;2.03;;
31798;SDS011;18374;51.136;3.502;2022-08-19T10:44:25;2.55;;;1.75;;
31798;SDS011;18374;51.136;3.502;2022-08-19T10:46:58;3.30;;;1.88;;
31798;SDS011;18374;51.136;3.502;2022-08-19T10:49:26;3.13;;;2.10;;
31798;SDS011;18374;51.136;3.502;2022-08-19T10:51:55;3.95;;;2.08;;
31798;SDS011;18374;51.136;3.502;2022-08-19T10:54:46;4.05;;;2.13;;
31798;SDS011;18374;51.136;3.502;2022-08-19T10:57:34;3.60;;;2.08;;
31798;SDS011;18374;51.136;3.502;2022-08-19T11:00:23;2.22;;;1.95;;
31798;SDS011;18374;51.136;3.502;2022-08-19T11:02:52;2.85;;;1.95;;
31798;SDS011;18374;51.136;3.502;2022-08-19T11:05:20;4.03;;;1.83;;
31798;SDS011;18374;51.136;3.502;2022-08-19T11:07:50;3.75;;;1.92;;
31798;SDS011;18374;51.136;3.502;2022-08-19T11:10:19;4.82;;;2.22;;
31798;SDS011;18374;51.136;3.502;2022-08-19T11:12:48;3.33;;;1.85;;
31798;SDS011;18374;51.136;3.502;2022-08-19T11:15:17;2.75;;;1.60;;
31798;SDS011;18374;51.136;3.502;2022-08-19T11:17:45;4.50;;;1.63;;
31798;SDS011;18374;51.136;3.502;2022-08-19T11:20:13;3.63;;;1.30;;
31798;SDS011;18374;51.136;3.502;2022-08-19T11:22:42;3.38;;;1.60;;
31798;SDS011;18374;51.136;3.502;2022-08-19T11:25:10;2.40;;;1.30;;
31798;SDS011;18374;51.136;3.502;2022-08-19T11:27:41;2.38;;;1.40;;
31798;SDS011;18374;51.136;3.502;2022-08-19T11:30:11;1.75;;;1.10;;
31798;SDS011;18374;51.136;3.502;2022-08-19T11:32:40;1.80;;;1.40;;
31798;SDS011;18374;51.136;3.502;2022-08-19T11:35:15;2.50;;;1.70;;
31798;SDS011;18374;51.136;3.502;2022-08-19T11:37:43;2.58;;;1.30;;
31798;SDS011;18374;51.136;3.502;2022-08-19T11:40:11;2.13;;;1.38;;
31798;SDS011;18374;51.136;3.502;2022-08-19T11:42:39;1.85;;;1.30;;
31798;SDS011;18374;51.136;3.502;2022-08-19T11:45:23;2.88;;;1.75;;
31798;SDS011;18374;51.136;3.502;2022-08-19T11:47:53;2.10;;;1.90;;
31798;SDS011;18374;51.136;3.502;2022-08-19T11:50:21;6.13;;;1.60;;
31798;SDS011;18374;51.136;3.502;2022-08-19T11:52:53;3.10;;;1.33;;
31798;SDS011;18374;51.136;3.502;2022-08-19T11:55:22;4.18;;;1.23;;
31798;SDS011;18374;51.136;3.502;2022-08-19T11:57:50;3.25;;;1.10;;
31798;SDS011;18374;51.136;3.502;2022-08-19T12:00:18;1.70;;;1.20;;
31798;SDS011;18374;51.136;3.502;2022-08-19T12:02:46;1.35;;;0.95;;
31798;SDS011;18374;51.136;3.502;2022-08-19T12:05:14;1.52;;;1.15;;
31798;SDS011;18374;51.136;3.502;2022-08-19T12:07:41;1.98;;;1.25;;
31798;SDS011;18374;51.136;3.502;2022-08-19T12:10:09;1.80;;;1.23;;
31798;SDS011;18374;51.136;3.502;2022-08-19T12:12:37;2.67;;;1.00;;
31798;SDS011;18374;51.136;3.502;2022-08-19T12:15:09;2.30;;;0.95;;
31798;SDS011;18374;51.136;3.502;2022-08-19T12:17:38;3.65;;;1.10;;
31798;SDS011;18374;51.136;3.502;2022-08-19T12:20:09;4.18;;;1.13;;
31798;SDS011;18374;51.136;3.502;2022-08-19T12:22:40;3.17;;;1.70;;
31798;SDS011;18374;51.136;3.502;2022-08-19T12:25:09;2.58;;;1.20;;
31798;SDS011;18374;51.136;3.502;2022-08-19T12:27:38;2.38;;;1.15;;
31798;SDS011;18374;51.136;3.502;2022-08-19T12:30:11;7.07;;;1.30;;
31798;SDS011;18374;51.136;3.502;2022-08-19T12:32:40;1.95;;;1.50;;
31798;SDS011;18374;51.136;3.502;2022-08-19T12:35:08;6.30;;;2.38;;
31798;SDS011;18374;51.136;3.502;2022-08-19T12:37:38;3.35;;;1.60;;
31798;SDS011;18374;51.136;3.502;2022-08-19T12:40:09;4.40;;;1.70;;
31798;SDS011;18374;51.136;3.502;2022-08-19T12:42:39;3.63;;;1.58;;
31798;SDS011;18374;51.136;3.502;2022-08-19T12:45:09;24.92;;;2.22;;
31798;SDS011;18374;51.136;3.502;2022-08-19T12:47:38;17.65;;;2.78;;
31798;SDS011;18374;51.136;3.502;2022-08-19T12:50:13;7.23;;;2.30;;
31798;SDS011;18374;51.136;3.502;2022-08-19T12:52:41;6.47;;;2.20;;
31798;SDS011;18374;51.136;3.502;2022-08-19T12:55:09;5.55;;;2.65;;
31798;SDS011;18374;51.136;3.502;2022-08-19T12:57:38;9.05;;;2.95;;
31798;SDS011;18374;51.136;3.502;2022-08-19T13:00:07;9.35;;;2.35;;
31798;SDS011;18374;51.136;3.502;2022-08-19T13:02:41;5.05;;;2.80;;
31798;SDS011;18374;51.136;3.502;2022-08-19T13:05:14;5.85;;;2.33;;
31798;SDS011;18374;51.136;3.502;2022-08-19T13:07:46;6.07;;;1.77;;
31798;SDS011;18374;51.136;3.502;2022-08-19T13:10:18;3.20;;;1.40;;
31798;SDS011;18374;51.136;3.502;2022-08-19T13:12:49;4.35;;;1.50;;
31798;SDS011;18374;51.136;3.502;2022-08-19T13:15:19;5.43;;;1.85;;
31798;SDS011;18374;51.136;3.502;2022-08-19T13:17:52;1.60;;;1.50;;
31798;SDS011;18374;51.136;3.502;2022-08-19T13:20:21;5.80;;;2.50;;
31798;SDS011;18374;51.136;3.502;2022-08-19T13:22:49;8.60;;;2.90;;
31798;SDS011;18374;51.136;3.502;2022-08-19T13:25:17;5.18;;;2.80;;
31798;SDS011;18374;51.136;3.502;2022-08-19T13:27:47;3.72;;;2.75;;
31798;SDS011;18374;51.136;3.502;2022-08-19T13:30:17;7.13;;;2.90;;
31798;SDS011;18374;51.136;3.502;2022-08-19T13:33:06;2.83;;;2.45;;
31798;SDS011;18374;51.136;3.502;2022-08-19T13:35:38;3.95;;;3.00;;
31798;SDS011;18374;51.136;3.502;2022-08-19T13:38:23;3.88;;;3.00;;
31798;SDS011;18374;51.136;3.502;2022-08-19T13:40:52;5.47;;;3.55;;
31798;SDS011;18374;51.136;3.502;2022-08-19T13:43:22;4.50;;;3.38;;
31798;SDS011;18374;51.136;3.502;2022-08-19T13:45:53;5.25;;;3.72;;
31798;SDS011;18374;51.136;3.502;2022-08-19T13:48:24;4.68;;;3.60;;
31798;SDS011;18374;51.136;3.502;2022-08-19T13:50:55;5.43;;;4.35;;
31798;SDS011;18374;51.136;3.502;2022-08-19T13:53:23;5.10;;;4.13;;
31798;SDS011;18374;51.136;3.502;2022-08-19T13:55:51;11.77;;;5.05;;
31798;SDS011;18374;51.136;3.502;2022-08-19T13:58:20;9.85;;;4.97;;
31798;SDS011;18374;51.136;3.502;2022-08-19T14:00:49;5.30;;;4.07;;
31798;SDS011;18374;51.136;3.502;2022-08-19T14:03:17;8.68;;;5.28;;
31798;SDS011;18374;51.136;3.502;2022-08-19T14:05:44;13.35;;;5.53;;
31798;SDS011;18374;51.136;3.502;2022-08-19T14:08:13;9.73;;;5.05;;
31798;SDS011;18374;51.136;3.502;2022-08-19T14:10:41;9.30;;;5.22;;
31798;SDS011;18374;51.136;3.502;2022-08-19T14:13:13;8.07;;;5.13;;
31798;SDS011;18374;51.136;3.502;2022-08-19T14:15:45;11.25;;;4.88;;
31798;SDS011;18374;51.136;3.502;2022-08-19T14:18:14;6.50;;;5.18;;
31798;SDS011;18374;51.136;3.502;2022-08-19T14:20:44;10.57;;;5.57;;
31798;SDS011;18374;51.136;3.502;2022-08-19T14:23:12;9.73;;;6.00;;
31798;SDS011;18374;51.136;3.502;2022-08-19T14:25:40;10.80;;;6.10;;
31798;SDS011;18374;51.136;3.502;2022-08-19T14:28:09;6.75;;;4.40;;
31798;SDS011;18374;51.136;3.502;2022-08-19T14:30:37;9.18;;;5.43;;
31798;SDS011;18374;51.136;3.502;2022-08-19T14:33:06;7.65;;;4.80;;
31798;SDS011;18374;51.136;3.502;2022-08-19T14:35:35;8.77;;;5.40;;
31798;SDS011;18374;51.136;3.502;2022-08-19T14:38:04;7.60;;;4.55;;
31798;SDS011;18374;51.136;3.502;2022-08-19T14:40:33;8.88;;;4.65;;
31798;SDS011;18374;51.136;3.502;2022-08-19T14:43:02;10.15;;;4.57;;
31798;SDS011;18374;51.136;3.502;2022-08-19T14:45:33;7.80;;;4.13;;
31798;SDS011;18374;51.136;3.502;2022-08-19T14:48:07;7.03;;;3.53;;
31798;SDS011;18374;51.136;3.502;2022-08-19T14:50:45;5.60;;;3.83;;
31798;SDS011;18374;51.136;3.502;2022-08-19T14:53:13;7.40;;;4.20;;
31798;SDS011;18374;51.136;3.502;2022-08-19T14:55:43;7.25;;;4.13;;
31798;SDS011;18374;51.136;3.502;2022-08-19T14:58:12;7.68;;;3.97;;
31798;SDS011;18374;51.136;3.502;2022-08-19T15:00:57;5.72;;;3.90;;
31798;SDS011;18374;51.136;3.502;2022-08-19T15:03:27;5.38;;;4.10;;
31798;SDS011;18374;51.136;3.502;2022-08-19T15:05:55;8.13;;;4.32;;
31798;SDS011;18374;51.136;3.502;2022-08-19T15:08:24;9.50;;;4.57;;
31798;SDS011;18374;51.136;3.502;2022-08-19T15:10:53;9.13;;;4.65;;
31798;SDS011;18374;51.136;3.502;2022-08-19T15:13:22;8.70;;;4.82;;
31798;SDS011;18374;51.136;3.502;2022-08-19T15:15:51;7.13;;;5.00;;
31798;SDS011;18374;51.136;3.502;2022-08-19T15:18:19;7.53;;;4.32;;